Time;durP1;ratioP1;P1;durP2;ratioP2;P2;SDS_P1;SDS_P2;PMS_P1;PMS_P2;Temp;Humidity;BMP_temperature;BMP_pressure;BME280_temperature;BME280_humidity;BME280_pressure;Samples;Min_cycle;Max_cycle;Signal;HPM_P1;HPM_P2
2024/02/22 06:02:46;;;;;;;3.85;0.68;;;10.70;85.10;;;;;;4008168;29;20633;-77
2024/02/22 06:04:47;;;;;;;1.80;0.68;;;10.60;85.70;;;;;;4009409;29;20102;-74
2024/02/22 06:06:49;;;;;;;2.08;0.80;;;10.60;85.30;;;;;;4009679;29;20057;-75
2024/02/22 06:08:51;;;;;;;1.27;0.60;;;10.60;85.70;;;;;;4009810;29;20050;-76
2024/02/22 06:10:53;;;;;;;2.13;0.73;;;10.60;86.00;;;;;;4009576;29;20056;-75
2024/02/22 06:12:55;;;;;;;3.00;0.80;;;10.60;86.00;;;;;;4009424;29;20094;-78
2024/02/22 06:14:57;;;;;;;2.30;0.73;;;10.60;86.00;;;;;;4009691;29;20109;-79
2024/02/22 06:16:59;;;;;;;1.38;0.60;;;10.60;85.70;;;;;;4009463;29;20456;-77
2024/02/22 06:19:03;;;;;;;1.70;0.60;;;10.60;85.40;;;;;;4009866;29;20475;-77
2024/02/22 06:21:05;;;;;;;1.40;0.60;;;10.60;85.40;;;;;;4008345;29;20068;-79
2024/02/22 06:23:07;;;;;;;1.45;0.60;;;10.70;85.30;;;;;;4008883;29;20057;-79
2024/02/22 06:25:08;;;;;;;1.65;0.60;;;10.60;85.40;;;;;;4009330;29;20046;-78
2024/02/22 06:27:11;;;;;;;1.33;0.57;;;10.60;85.60;;;;;;4009316;29;20050;-78
2024/02/22 06:29:13;;;;;;;1.25;0.45;;;10.60;85.30;;;;;;4008973;29;20500;-77
2024/02/22 06:31:15;;;;;;;1.63;0.68;;;10.60;85.20;;;;;;4008883;29;20465;-77
2024/02/22 06:33:17;;;;;;;1.90;0.70;;;10.70;85.60;;;;;;4009044;29;20060;-76
2024/02/22 06:35:21;;;;;;;1.38;0.60;;;10.60;85.60;;;;;;4008870;29;20057;-79
2024/02/22 06:37:23;;;;;;;1.75;0.52;;;10.60;85.80;;;;;;4008916;29;20057;-77
2024/02/22 06:39:27;;;;;;;1.65;0.60;;;10.60;86.00;;;;;;4009087;29;20054;-79
2024/02/22 06:41:29;;;;;;;2.40;0.70;;;10.50;86.60;;;;;;4008927;29;20062;-76
2024/02/22 06:43:31;;;;;;;1.13;0.40;;;10.50;86.70;;;;;;4008831;29;20077;-78
2024/02/22 06:45:33;;;;;;;2.25;0.80;;;10.50;86.70;;;;;;4008805;29;20477;-78
2024/02/22 06:47:35;;;;;;;1.77;0.80;;;10.50;87.70;;;;;;4009257;29;20472;-78
2024/02/22 06:49:37;;;;;;;1.90;0.63;;;10.50;87.50;;;;;;4008640;29;20110;-78
2024/02/22 06:51:40;;;;;;;1.90;0.70;;;10.40;87.80;;;;;;4008677;29;20057;-79
2024/02/22 06:53:42;;;;;;;1.42;0.65;;;10.50;87.70;;;;;;4008813;29;20046;-79
2024/02/22 06:55:43;;;;;;;2.63;1.15;;;10.40;88.40;;;;;;4008768;29;20062;-78
2024/02/22 06:57:45;;;;;;;1.85;0.80;;;10.40;88.60;;;;;;4009051;29;20045;-78
2024/02/22 06:59:46;;;;;;;1.48;0.70;;;10.30;88.50;;;;;;4008626;29;20408;-78
2024/02/22 07:01:48;;;;;;;2.83;0.90;;;10.30;88.80;;;;;;4019313;29;20067;-77
2024/02/22 07:03:50;;;;;;;2.83;1.10;;;10.40;89.00;;;;;;4024180;29;20050;-79
2024/02/22 07:05:52;;;;;;;4.25;1.05;;;10.30;89.10;;;;;;4023899;29;20484;-79
2024/02/22 07:07:55;;;;;;;3.05;0.98;;;10.30;88.70;;;;;;4024141;29;20075;-79
2024/02/22 07:09:57;;;;;;;2.05;0.90;;;10.30;88.60;;;;;;4024520;29;20452;-79
2024/02/22 07:12:00;;;;;;;2.97;0.95;;;10.30;88.80;;;;;;4023947;29;20058;-79
2024/02/22 07:14:02;;;;;;;6.97;3.35;;;10.30;88.80;;;;;;4024904;29;20053;-79
2024/02/22 07:16:04;;;;;;;2.22;0.75;;;10.30;88.80;;;;;;4028796;29;20089;-77
2024/02/22 07:18:07;;;;;;;2.55;0.90;;;10.30;88.30;;;;;;4044160;29;20056;-78
2024/02/22 07:20:09;;;;;;;2.78;0.93;;;10.30;88.30;;;;;;4047584;29;20060;-75
2024/02/22 07:22:11;;;;;;;2.13;0.85;;;10.30;88.40;;;;;;4047534;29;20087;-77
2024/02/22 07:24:15;;;;;;;4.13;1.20;;;10.30;88.50;;;;;;4048086;29;20052;-78
2024/02/22 07:26:17;;;;;;;1.88;0.80;;;10.30;88.40;;;;;;4049458;29;20045;-77
2024/02/22 07:28:20;;;;;;;2.47;0.80;;;10.30;88.90;;;;;;4048186;29;20053;-78
2024/02/22 07:30:23;;;;;;;3.13;0.80;;;10.30;88.50;;;;;;4049028;29;20081;-78
2024/02/22 07:32:25;;;;;;;2.63;1.08;;;10.30;88.70;;;;;;4049089;29;20053;-76
2024/02/22 07:34:26;;;;;;;2.10;0.88;;;10.30;88.40;;;;;;4047380;29;20053;-77
2024/02/22 07:36:28;;;;;;;2.38;0.80;;;10.30;88.20;;;;;;4046590;29;20480;-77
2024/02/22 07:38:31;;;;;;;2.65;0.63;;;10.30;88.40;;;;;;4047288;29;20056;-76
2024/02/22 07:40:34;;;;;;;2.60;0.70;;;10.30;88.80;;;;;;4048079;29;20069;-76
2024/02/22 07:42:36;;;;;;;1.55;0.60;;;10.30;89.20;;;;;;4045075;29;20057;-77
2024/02/22 07:44:38;;;;;;;1.83;0.80;;;10.30;88.50;;;;;;4040205;29;20101;-77
2024/02/22 07:46:40;;;;;;;1.98;0.70;;;10.30;88.70;;;;;;4043187;29;20147;-77
2024/02/22 07:48:42;;;;;;;1.70;0.55;;;10.30;88.60;;;;;;4041303;29;20049;-78
2024/02/22 07:50:43;;;;;;;3.58;0.88;;;10.30;88.70;;;;;;4038642;29;20053;-78
2024/02/22 07:52:45;;;;;;;1.30;0.50;;;10.30;88.40;;;;;;4045192;29;20577;-78
2024/02/22 07:54:47;;;;;;;1.63;0.55;;;10.40;88.30;;;;;;4049288;29;20048;-75
2024/02/22 07:56:50;;;;;;;1.55;0.70;;;10.40;88.40;;;;;;4043289;29;20064;-79
2024/02/22 07:58:57;;;;;;;1.58;0.55;;;10.30;88.60;;;;;;4038908;29;20447;-79
2024/02/22 08:00:59;;;;;;;0.93;0.30;;;10.40;88.20;;;;;;4038160;29;20052;-76
2024/02/22 08:03:00;;;;;;;0.93;0.30;;;10.40;89.10;;;;;;4038678;29;20076;-78
2024/02/22 08:05:02;;;;;;;1.00;0.43;;;10.40;88.20;;;;;;4038429;29;20053;-78
2024/02/22 08:07:05;;;;;;;1.10;0.30;;;10.40;87.90;;;;;;4038245;29;20049;-80
2024/02/22 08:09:07;;;;;;;0.70;0.30;;;10.40;88.20;;;;;;4038222;29;20509;-78
2024/02/22 08:11:11;;;;;;;0.82;0.30;;;10.40;88.40;;;;;;4038242;29;20056;-79
2024/02/22 08:13:16;;;;;;;0.80;0.40;;;10.40;87.90;;;;;;4037992;29;20453;-78
2024/02/22 08:15:18;;;;;;;1.70;0.30;;;10.40;88.20;;;;;;4038259;29;20140;-76
2024/02/22 08:17:19;;;;;;;0.85;0.30;;;10.40;88.40;;;;;;4037795;29;20052;-76
2024/02/22 08:19:21;;;;;;;0.60;0.20;;;10.40;88.30;;;;;;4038047;29;20085;-77
2024/02/22 08:21:23;;;;;;;0.40;0.15;;;10.40;88.20;;;;;;4038070;29;20049;-78
2024/02/22 08:23:25;;;;;;;0.57;0.30;;;10.40;88.20;;;;;;4037974;29;20093;-79
2024/02/22 08:25:27;;;;;;;0.45;0.20;;;10.50;88.40;;;;;;4038064;29;20089;-78
2024/02/22 08:27:29;;;;;;;0.60;0.20;;;10.50;87.90;;;;;;4038069;29;20488;-78
2024/02/22 08:29:32;;;;;;;1.33;0.30;;;10.50;87.70;;;;;;4037890;29;20105;-79
2024/02/22 08:31:34;;;;;;;1.08;0.38;;;10.50;87.70;;;;;;4037923;29;20049;-79
2024/02/22 08:33:36;;;;;;;0.65;0.30;;;10.60;87.10;;;;;;4037896;29;20085;-79
2024/02/22 08:35:37;;;;;;;0.50;0.17;;;10.50;86.80;;;;;;4037838;29;20056;-78
2024/02/22 08:37:38;;;;;;;0.50;0.20;;;10.60;87.10;;;;;;4037863;29;20061;-78
2024/02/22 08:39:40;;;;;;;1.25;0.30;;;10.60;86.80;;;;;;4037806;29;20053;-79
2024/02/22 08:41:42;;;;;;;0.20;0.10;;;10.60;87.40;;;;;;4037678;29;20128;-78
2024/02/22 08:43:43;;;;;;;0.57;0.20;;;10.70;86.60;;;;;;4040677;29;20495;-80
2024/02/22 08:45:48;;;;;;;0.45;0.20;;;10.70;85.90;;;;;;4042985;29;20057;-78
2024/02/22 08:47:49;;;;;;;0.63;0.22;;;10.70;85.80;;;;;;4042881;29;20437;-79
2024/02/22 08:49:50;;;;;;;0.57;0.20;;;10.80;85.60;;;;;;4042988;29;20113;-78
2024/02/22 08:51:52;;;;;;;1.45;0.20;;;10.80;86.00;;;;;;4042976;29;20110;-79
2024/02/22 08:53:54;;;;;;;1.85;0.22;;;10.80;85.30;;;;;;4043028;29;20120;-80
2024/02/22 08:55:55;;;;;;;1.38;0.40;;;10.80;85.10;;;;;;4043139;29;20379;-77
2024/02/22 08:57:57;;;;;;;0.80;0.30;;;10.90;85.10;;;;;;4043119;29;20107;-80
2024/02/22 08:59:59;;;;;;;0.85;0.30;;;10.90;85.10;;;;;;4043005;29;20135;-76
2024/02/22 09:02:02;;;;;;;1.05;0.20;;;10.90;84.90;;;;;;4042916;29;20065;-77
2024/02/22 09:04:04;;;;;;;0.30;0.20;;;10.90;85.20;;;;;;4042977;29;20057;-78
2024/02/22 09:06:07;;;;;;;0.20;0.10;;;10.90;84.20;;;;;;4042890;29;20108;-78
2024/02/22 09:08:09;;;;;;;0.38;0.10;;;11.00;83.80;;;;;;4042809;29;20087;-78
2024/02/22 09:10:10;;;;;;;0.70;0.10;;;11.00;83.70;;;;;;4042752;29;20053;-76
2024/02/22 09:12:12;;;;;;;1.02;0.30;;;11.10;83.90;;;;;;4042780;29;20123;-79
2024/02/22 09:14:13;;;;;;;0.52;0.20;;;11.10;83.60;;;;;;4043044;29;20109;-79
2024/02/22 09:16:15;;;;;;;0.43;0.20;;;11.10;83.50;;;;;;4042598;29;20053;-78
2024/02/22 09:18:18;;;;;;;0.50;0.20;;;11.10;82.80;;;;;;4042832;29;20487;-79
2024/02/22 09:20:20;;;;;;;0.43;0.10;;;11.10;82.90;;;;;;4042717;29;20049;-78
2024/02/22 09:22:22;;;;;;;0.60;0.20;;;11.10;82.80;;;;;;4042570;29;20095;-76
2024/02/22 09:24:24;;;;;;;0.60;0.30;;;11.20;82.30;;;;;;4042868;29;20479;-78
2024/02/22 09:26:25;;;;;;;0.43;0.20;;;11.20;81.90;;;;;;4042534;29;20053;-78
2024/02/22 09:28:27;;;;;;;0.57;0.20;;;11.20;81.80;;;;;;4042636;29;20061;-79
2024/02/22 09:30:29;;;;;;;0.45;0.20;;;11.20;81.30;;;;;;4042688;29;20049;-78
2024/02/22 09:32:30;;;;;;;0.43;0.20;;;11.30;81.60;;;;;;4042575;29;20045;-77
2024/02/22 09:34:33;;;;;;;0.60;0.22;;;11.30;81.50;;;;;;4042714;29;20384;-78
2024/02/22 09:36:35;;;;;;;0.10;0.10;;;11.30;81.40;;;;;;4042306;29;20101;-80
2024/02/22 09:38:37;;;;;;;0.63;0.20;;;11.30;80.80;;;;;;4042478;29;20085;-76
2024/02/22 09:40:39;;;;;;;0.73;0.20;;;11.30;80.80;;;;;;4042375;29;20113;-79
2024/02/22 09:42:42;;;;;;;0.75;0.20;;;11.30;80.70;;;;;;4042534;29;20045;-79
2024/02/22 09:44:44;;;;;;;0.57;0.15;;;11.40;81.00;;;;;;4042588;29;20052;-79
2024/02/22 09:46:53;;;;;;;0.40;0.17;;;11.40;81.00;;;;;;4042501;29;20148;-79
2024/02/22 09:48:55;;;;;;;0.88;0.20;;;11.40;81.00;;;;;;4042545;29;20303;-79
2024/02/22 09:50:59;;;;;;;0.28;0.03;;;11.50;80.90;;;;;;4042333;29;20049;-78
2024/02/22 09:53:02;;;;;;;0.77;0.20;;;11.50;81.30;;;;;;4042582;29;20057;-76
2024/02/22 09:55:05;;;;;;;0.43;0.10;;;11.50;81.20;;;;;;4041076;29;20045;-78
2024/02/22 09:57:07;;;;;;;0.85;0.20;;;11.50;81.10;;;;;;4039774;29;20479;-78
2024/02/22 09:59:11;;;;;;;0.80;0.30;;;11.50;81.50;;;;;;4039703;29;20097;-79
2024/02/22 10:01:13;;;;;;;0.25;0.15;;;11.50;81.50;;;;;;4039972;29;20549;-78
2024/02/22 10:03:16;;;;;;;1.05;0.20;;;11.50;81.10;;;;;;4039935;29;20392;-77
2024/02/22 10:05:19;;;;;;;0.43;0.20;;;11.50;80.80;;;;;;4039972;29;20395;-78
2024/02/22 10:07:24;;;;;;;1.17;0.30;;;11.50;81.10;;;;;;4039948;29;20053;-76
2024/02/22 10:09:26;;;;;;;1.67;0.20;;;11.50;81.40;;;;;;4040324;29;20479;-77
2024/02/22 10:11:28;;;;;;;0.60;0.20;;;11.60;81.40;;;;;;4040271;29;20053;-78
2024/02/22 10:13:29;;;;;;;0.57;0.30;;;11.60;81.20;;;;;;4039930;29;20045;-76
2024/02/22 10:15:33;;;;;;;0.40;0.20;;;11.60;80.80;;;;;;4039805;29;20495;-78
2024/02/22 10:17:38;;;;;;;0.20;0.10;;;11.60;80.90;;;;;;4039905;29;20063;-78
2024/02/22 10:19:39;;;;;;;0.52;0.20;;;11.70;80.40;;;;;;4040030;29;20109;-73
2024/02/22 10:21:41;;;;;;;2.10;0.73;;;11.70;80.00;;;;;;4040106;29;20088;-78
2024/02/22 10:23:46;;;;;;;0.45;0.15;;;11.70;80.20;;;;;;4039756;29;20089;-77
2024/02/22 10:25:49;;;;;;;1.83;0.28;;;11.70;80.50;;;;;;4039757;29;20113;-79
2024/02/22 10:27:50;;;;;;;0.40;0.17;;;11.70;80.30;;;;;;4039605;29;20049;-78
2024/02/22 10:29:52;;;;;;;0.50;0.20;;;11.80;80.20;;;;;;4039459;29;20053;-78
2024/02/22 10:31:54;;;;;;;0.65;0.22;;;11.80;80.60;;;;;;4039536;29;20131;-77
2024/02/22 10:33:58;;;;;;;0.88;0.20;;;11.80;79.50;;;;;;4039481;29;20105;-78
2024/02/22 10:36:01;;;;;;;1.02;0.30;;;11.80;79.10;;;;;;4039322;29;20049;-78
2024/02/22 10:38:05;;;;;;;1.15;0.17;;;11.90;79.50;;;;;;4039452;29;20056;-79
2024/02/22 10:40:11;;;;;;;0.82;0.20;;;11.90;78.90;;;;;;4039542;29;20056;-77
2024/02/22 10:42:13;;;;;;;0.77;0.32;;;11.90;78.90;;;;;;4039493;29;20465;-77
2024/02/22 10:44:15;;;;;;;0.30;0.10;;;12.00;78.80;;;;;;4039618;29;20045;-77
2024/02/22 10:46:19;;;;;;;0.57;0.20;;;12.00;78.50;;;;;;4039471;29;20566;-78
2024/02/22 10:48:21;;;;;;;0.60;0.17;;;12.00;78.00;;;;;;4039135;29;20053;-76
2024/02/22 10:50:29;;;;;;;0.50;0.20;;;12.00;77.80;;;;;;4039609;29;20089;-77
2024/02/22 10:52:33;;;;;;;1.63;0.40;;;12.00;77.80;;;;;;4039119;29;20081;-78
2024/02/22 10:54:36;;;;;;;0.73;0.13;;;12.00;77.80;;;;;;4039246;29;20054;-78
2024/02/22 10:56:42;;;;;;;0.57;0.30;;;12.10;78.30;;;;;;4039324;29;20120;-78
2024/02/22 10:58:47;;;;;;;0.30;0.10;;;12.00;78.90;;;;;;4037947;29;20180;-76
2024/02/22 11:00:51;;;;;;;0.30;0.17;;;12.10;78.80;;;;;;4022529;29;20058;-77
2024/02/22 11:02:54;;;;;;;0.80;0.20;;;12.10;79.30;;;;;;4024792;29;20556;-78
2024/02/22 11:05:01;;;;;;;1.15;0.40;;;12.10;79.00;;;;;;4025345;29;20076;-76
2024/02/22 11:07:05;;;;;;;1.52;0.22;;;12.10;79.80;;;;;;4023787;29;20053;-77
2024/02/22 11:09:17;;;;;;;1.08;0.40;;;12.10;79.40;;;;;;4023156;29;20092;-78
2024/02/22 11:11:27;;;;;;;0.65;0.20;;;12.10;79.40;;;;;;4026328;29;20060;-78
2024/02/22 11:13:30;;;;;;;0.65;0.22;;;12.00;79.50;;;;;;4028741;29;20060;-78
2024/02/22 11:15:35;;;;;;;0.25;0.10;;;12.10;79.90;;;;;;4022938;29;20059;-78
2024/02/22 11:17:39;;;;;;;0.82;0.25;;;12.10;79.30;;;;;;4025785;29;20060;-78
2024/02/22 11:19:40;;;;;;;1.15;0.45;;;12.10;79.80;;;;;;4024697;29;20062;-76
2024/02/22 11:21:43;;;;;;;4.22;1.77;;;12.10;80.40;;;;;;4037514;29;20463;-74
2024/02/22 11:23:45;;;;;;;1.55;0.30;;;12.10;80.60;;;;;;4034083;29;20128;-75
2024/02/22 11:25:47;;;;;;;0.32;0.13;;;12.10;80.60;;;;;;4036508;29;20448;-76
2024/02/22 11:27:58;;;;;;;0.45;0.10;;;12.10;80.20;;;;;;4035529;29;20073;-75
2024/02/22 11:30:13;;;;;;;1.35;0.32;;;12.00;79.80;;;;;;4036210;29;20049;-76
2024/02/22 11:32:15;;;;;;;;;;;12.00;80.50;;;;;;4036657;29;20109;-77
2024/02/22 11:34:18;;;;;;;0.52;0.28;;;12.00;81.00;;;;;;4036499;29;19932;-74
2024/02/22 11:36:20;;;;;;;0.55;0.10;;;12.00;81.30;;;;;;4035648;29;20562;-76
2024/02/22 11:38:22;;;;;;;0.75;0.20;;;12.00;81.00;;;;;;4035964;29;20056;-75
2024/02/22 11:40:25;;;;;;;0.17;0.10;;;12.00;81.70;;;;;;4035812;29;20143;-76
2024/02/22 11:42:28;;;;;;;1.40;0.50;;;12.00;81.00;;;;;;4035865;29;20184;-77
2024/02/22 11:44:30;;;;;;;1.98;0.95;;;11.90;82.10;;;;;;4036299;29;20053;-75
2024/02/22 11:46:38;;;;;;;1.50;0.68;;;12.00;81.80;;;;;;4036107;29;20085;-75
2024/02/22 11:48:40;;;;;;;0.90;0.30;;;12.00;81.40;;;;;;4035909;29;20396;-76
2024/02/22 11:50:42;;;;;;;0.82;0.30;;;12.00;81.40;;;;;;4036008;29;20144;-76
2024/02/22 11:52:44;;;;;;;1.13;0.20;;;12.00;81.20;;;;;;4036272;29;20053;-76
2024/02/22 11:54:51;;;;;;;0.90;0.30;;;12.00;81.30;;;;;;4036360;29;20061;-78
2024/02/22 11:56:52;;;;;;;0.40;0.20;;;12.10;81.40;;;;;;4036223;29;20526;-76
2024/02/22 11:58:56;;;;;;;0.60;0.28;;;12.10;81.00;;;;;;4035826;29;20448;-74
2024/02/22 12:01:00;;;;;;;0.47;0.20;;;12.10;81.10;;;;;;4036026;29;20064;-74
2024/02/22 12:03:03;;;;;;;0.95;0.30;;;12.20;80.60;;;;;;4036067;29;20057;-75
2024/02/22 12:05:09;;;;;;;0.90;0.30;;;12.20;81.00;;;;;;4036163;29;20056;-76
2024/02/22 12:07:10;;;;;;;1.00;0.40;;;12.20;79.80;;;;;;4034808;29;20111;-74
2024/02/22 12:09:13;;;;;;;0.57;0.17;;;12.30;79.50;;;;;;4035687;29;20052;-77
2024/02/22 12:11:14;;;;;;;0.57;0.10;;;12.40;79.20;;;;;;4035416;29;20052;-76
2024/02/22 12:13:16;;;;;;;0.50;0.20;;;12.50;79.10;;;;;;4035398;29;20056;-76
2024/02/22 12:15:19;;;;;;;0.90;0.17;;;12.50;77.70;;;;;;4036127;29;20053;-76
2024/02/22 12:17:26;;;;;;;0.20;0.10;;;12.50;76.90;;;;;;4033506;29;20096;-75
2024/02/22 12:19:29;;;;;;;0.10;0.08;;;12.60;76.40;;;;;;4035370;29;20496;-76
2024/02/22 12:21:31;;;;;;;0.30;0.10;;;12.50;75.80;;;;;;4035705;29;20063;-77
2024/02/22 12:23:33;;;;;;;0.10;0.10;;;12.50;76.20;;;;;;4033857;29;20487;-74
2024/02/22 12:25:36;;;;;;;0.60;0.20;;;12.50;75.90;;;;;;4035662;29;20503;-74
2024/02/22 12:27:38;;;;;;;0.40;0.10;;;12.50;74.60;;;;;;4035567;29;20057;-77
2024/02/22 12:29:39;;;;;;;0.30;0.20;;;12.50;74.70;;;;;;4035652;29;20121;-76
2024/02/22 12:31:41;;;;;;;0.40;0.10;;;12.50;74.20;;;;;;4035570;29;20049;-74
2024/02/22 12:33:42;;;;;;;1.13;0.20;;;12.50;74.30;;;;;;4035530;29;20091;-76
2024/02/22 12:35:45;;;;;;;0.50;0.15;;;12.50;73.70;;;;;;4035389;29;20048;-77
2024/02/22 12:37:48;;;;;;;0.35;0.10;;;12.50;73.40;;;;;;4035746;29;20113;-76
2024/02/22 12:39:50;;;;;;;1.55;0.30;;;12.50;73.70;;;;;;4035058;29;20056;-76
2024/02/22 12:41:51;;;;;;;0.50;0.15;;;12.50;73.30;;;;;;4033946;29;20502;-76
2024/02/22 12:43:55;;;;;;;0.30;0.10;;;12.50;73.00;;;;;;4035532;29;20172;-77
2024/02/22 12:45:57;;;;;;;0.52;0.20;;;12.40;72.60;;;;;;4035467;29;20060;-76
2024/02/22 12:47:59;;;;;;;0.82;0.13;;;12.40;73.10;;;;;;4035471;29;20084;-76
2024/02/22 12:50:01;;;;;;;0.40;0.20;;;12.40;72.80;;;;;;4035421;29;20049;-75
2024/02/22 12:52:03;;;;;;;1.42;0.20;;;12.40;72.70;;;;;;4035488;29;20053;-74
2024/02/22 12:54:05;;;;;;;0.60;0.20;;;12.50;73.50;;;;;;4035302;29;20095;-77
2024/02/22 12:56:08;;;;;;;1.13;0.20;;;12.50;72.70;;;;;;4035357;29;20064;-77
2024/02/22 12:58:08;;;;;;;0.75;0.20;;;12.40;72.30;;;;;;4035334;29;20460;-74
2024/02/22 13:00:13;;;;;;;0.52;0.20;;;12.40;72.80;;;;;;4035413;29;20053;-77
2024/02/22 13:02:14;;;;;;;0.93;0.20;;;12.40;72.80;;;;;;4035225;29;20061;-76
2024/02/22 13:04:16;;;;;;;0.52;0.17;;;12.40;73.10;;;;;;4034812;29;20049;-77
2024/02/22 13:06:18;;;;;;;1.25;0.30;;;12.40;73.10;;;;;;4035684;29;20057;-76
2024/02/22 13:08:21;;;;;;;0.28;0.17;;;12.40;73.10;;;;;;4035500;29;20064;-76
2024/02/22 13:10:23;;;;;;;0.40;0.17;;;12.50;73.20;;;;;;4036083;29;20049;-75
2024/02/22 13:12:26;;;;;;;0.65;0.20;;;12.50;73.30;;;;;;4035107;29;20057;-77
2024/02/22 13:14:28;;;;;;;0.85;0.30;;;12.50;73.50;;;;;;4035160;29;20468;-76
2024/02/22 13:16:29;;;;;;;0.68;0.30;;;12.50;74.00;;;;;;4035451;29;20504;-78
2024/02/22 13:18:31;;;;;;;0.57;0.20;;;12.50;73.90;;;;;;4033336;29;20059;-77
2024/02/22 13:20:34;;;;;;;1.27;0.30;;;12.50;74.00;;;;;;4035927;29;20060;-76
2024/02/22 13:22:36;;;;;;;1.05;0.40;;;12.50;75.20;;;;;;4035083;29;20053;-76
2024/02/22 13:24:39;;;;;;;0.73;0.30;;;12.50;75.60;;;;;;4035247;29;20091;-76
2024/02/22 13:26:41;;;;;;;0.80;0.28;;;12.50;75.50;;;;;;4035402;29;20053;-76
2024/02/22 13:28:43;;;;;;;2.22;0.30;;;12.50;76.30;;;;;;4035253;29;20105;-75
2024/02/22 13:30:45;;;;;;;0.88;0.30;;;12.50;76.30;;;;;;4037896;29;20057;-75
2024/02/22 13:32:47;;;;;;;0.68;0.20;;;12.50;76.70;;;;;;4038260;29;20053;-75
2024/02/22 13:34:49;;;;;;;0.57;0.20;;;12.50;76.40;;;;;;4037570;29;20057;-75
2024/02/22 13:36:51;;;;;;;0.93;0.30;;;12.50;76.80;;;;;;4038147;29;20053;-75
2024/02/22 13:38:53;;;;;;;0.88;0.30;;;12.50;77.60;;;;;;4038523;29;20056;-76
2024/02/22 13:40:56;;;;;;;1.33;0.30;;;12.50;77.30;;;;;;4038585;29;20114;-77
2024/02/22 13:42:58;;;;;;;1.08;0.40;;;12.40;77.40;;;;;;4038499;29;20053;-76
2024/02/22 13:45:00;;;;;;;0.70;0.30;;;12.40;78.00;;;;;;4038471;29;20101;-76
2024/02/22 13:47:02;;;;;;;0.60;0.30;;;12.40;78.20;;;;;;4038214;29;20137;-75
2024/02/22 13:49:03;;;;;;;0.60;0.30;;;12.30;78.40;;;;;;4038057;29;20109;-76
2024/02/22 13:51:06;;;;;;;0.52;0.20;;;12.30;78.40;;;;;;4038369;29;20136;-77
2024/02/22 13:53:08;;;;;;;0.35;0.20;;;12.30;78.10;;;;;;4038098;29;20053;-74
2024/02/22 13:55:11;;;;;;;0.63;0.20;;;12.30;78.50;;;;;;4037801;29;20112;-76
2024/02/22 13:57:14;;;;;;;0.77;0.20;;;12.20;78.30;;;;;;4037816;29;20061;-76
2024/02/22 13:59:15;;;;;;;0.70;0.30;;;12.30;78.80;;;;;;4037790;29;20460;-76
2024/02/22 14:01:17;;;;;;;1.23;0.25;;;12.20;78.80;;;;;;4037627;29;20756;-77
2024/02/22 14:03:19;;;;;;;0.70;0.30;;;12.20;80.20;;;;;;4037912;29;20049;-74
2024/02/22 14:05:21;;;;;;;1.35;0.32;;;12.20;80.40;;;;;;4037548;29;20184;-75
2024/02/22 14:07:23;;;;;;;1.20;0.40;;;12.10;80.60;;;;;;4037847;29;20049;-76
2024/02/22 14:09:25;;;;;;;1.02;0.30;;;12.10;81.40;;;;;;4037939;29;20057;-76
2024/02/22 14:11:27;;;;;;;0.60;0.20;;;12.10;81.50;;;;;;4037605;29;20108;-76
2024/02/22 14:13:34;;;;;;;0.73;0.30;;;12.10;81.30;;;;;;4037571;29;20060;-76
2024/02/22 14:15:38;;;;;;;2.03;0.50;;;12.00;81.10;;;;;;4037911;29;20108;-76
2024/02/22 14:17:40;;;;;;;0.80;0.30;;;12.00;80.70;;;;;;4035621;29;20105;-75
2024/02/22 14:19:42;;;;;;;0.73;0.20;;;12.00;80.90;;;;;;4037643;29;20444;-75
2024/02/22 14:21:44;;;;;;;0.68;0.30;;;12.00;80.10;;;;;;4037685;29;20129;-76
2024/02/22 14:23:46;;;;;;;0.88;0.22;;;12.00;80.70;;;;;;4037418;29;20045;-77
2024/02/22 14:25:48;;;;;;;0.32;0.17;;;12.00;80.60;;;;;;4037593;29;20052;-77
2024/02/22 14:27:50;;;;;;;0.43;0.13;;;12.00;80.20;;;;;;4037433;29;20045;-77
2024/02/22 14:29:53;;;;;;;0.65;0.28;;;12.00;79.40;;;;;;4037778;29;20053;-73
2024/02/22 14:31:55;;;;;;;0.88;0.40;;;12.00;79.40;;;;;;4037512;29;20151;-76
2024/02/22 14:33:57;;;;;;;1.10;0.40;;;12.00;78.70;;;;;;4037687;29;20085;-77
2024/02/22 14:35:59;;;;;;;0.50;0.20;;;12.10;79.40;;;;;;4037372;29;20113;-77
2024/02/22 14:38:01;;;;;;;0.52;0.20;;;12.10;78.60;;;;;;4037272;29;20056;-76
2024/02/22 14:40:03;;;;;;;0.77;0.30;;;12.10;78.50;;;;;;4037531;29;20507;-76
2024/02/22 14:42:05;;;;;;;1.10;0.30;;;12.00;78.10;;;;;;4036558;29;20116;-77
2024/02/22 14:44:07;;;;;;;0.68;0.20;;;12.10;77.80;;;;;;4037399;29;20045;-75
2024/02/22 14:46:10;;;;;;;0.40;0.20;;;12.10;76.60;;;;;;4037268;29;20100;-75
2024/02/22 14:48:13;;;;;;;0.43;0.20;;;12.10;76.80;;;;;;4037081;29;20053;-75
2024/02/22 14:50:17;;;;;;;0.40;0.20;;;12.10;76.60;;;;;;4037197;29;20053;-75
2024/02/22 14:52:18;;;;;;;1.02;0.20;;;12.10;76.80;;;;;;4037344;29;20060;-75
2024/02/22 14:54:20;;;;;;;0.80;0.30;;;12.10;76.70;;;;;;4037359;29;20049;-75
2024/02/22 14:56:22;;;;;;;1.05;0.38;;;12.10;76.30;;;;;;4037345;29;20108;-77
2024/02/22 14:58:26;;;;;;;0.65;0.20;;;12.10;76.20;;;;;;4036875;29;20056;-76
2024/02/22 15:00:28;;;;;;;0.93;0.30;;;12.10;76.30;;;;;;4036796;29;20515;-76
2024/02/22 15:02:31;;;;;;;1.17;0.20;;;12.20;76.40;;;;;;4037380;29;20049;-78
2024/02/22 15:04:33;;;;;;;0.70;0.30;;;12.20;76.50;;;;;;4037056;29;20072;-77
2024/02/22 15:06:35;;;;;;;0.75;0.35;;;12.10;76.50;;;;;;4036389;29;20053;-79
2024/02/22 15:08:37;;;;;;;1.05;0.40;;;12.20;77.20;;;;;;4036955;29;20053;-78
2024/02/22 15:10:40;;;;;;;1.75;0.40;;;12.10;77.50;;;;;;4037105;29;20049;-77
2024/02/22 15:12:42;;;;;;;1.02;0.40;;;12.10;77.70;;;;;;4036758;29;20601;-77
2024/02/22 15:14:44;;;;;;;1.10;0.47;;;12.10;78.00;;;;;;4037231;29;20152;-78
2024/02/22 15:16:46;;;;;;;1.25;0.30;;;12.10;77.80;;;;;;4037153;29;20060;-79
2024/02/22 15:18:49;;;;;;;1.10;0.30;;;12.00;78.60;;;;;;4034471;29;20061;-79
2024/02/22 15:20:52;;;;;;;1.00;0.30;;;12.00;78.70;;;;;;4036573;29;20049;-77
2024/02/22 15:22:54;;;;;;;1.15;0.38;;;12.00;79.70;;;;;;4036725;29;20147;-75
2024/02/22 15:24:56;;;;;;;0.90;0.30;;;12.00;79.60;;;;;;4036932;29;20100;-77
2024/02/22 15:26:59;;;;;;;1.73;0.40;;;11.90;80.10;;;;;;4037124;29;20049;-77
2024/02/22 15:29:00;;;;;;;1.48;0.50;;;11.90;80.50;;;;;;4036769;29;20109;-77
2024/02/22 15:31:02;;;;;;;0.70;0.30;;;11.90;79.90;;;;;;4036692;29;20057;-79
2024/02/22 15:33:05;;;;;;;0.40;0.20;;;11.90;80.00;;;;;;4036376;29;20082;-76
2024/02/22 15:35:09;;;;;;;1.23;0.50;;;11.90;79.80;;;;;;4036342;29;20112;-79
2024/02/22 15:37:12;;;;;;;0.98;0.30;;;11.90;80.10;;;;;;4036312;29;20420;-77
2024/02/22 15:39:14;;;;;;;0.63;0.30;;;11.90;79.40;;;;;;4036269;29;20057;-79
2024/02/22 15:41:15;;;;;;;1.13;0.40;;;11.90;79.80;;;;;;4036118;29;20057;-80
2024/02/22 15:43:17;;;;;;;1.13;0.43;;;11.90;79.50;;;;;;4036502;29;20471;-78
2024/02/22 15:45:19;;;;;;;1.15;0.43;;;11.80;79.70;;;;;;4036215;29;20053;-79
2024/02/22 15:47:21;;;;;;;1.85;0.50;;;11.90;79.90;;;;;;4036363;29;20061;-79
2024/02/22 15:49:22;;;;;;;0.85;0.30;;;11.80;80.80;;;;;;4036292;29;20049;-77
2024/02/22 15:51:25;;;;;;;1.75;0.43;;;11.90;80.30;;;;;;4034633;29;20168;-77
2024/02/22 15:53:27;;;;;;;4.18;1.85;;;11.80;80.50;;;;;;4021043;29;20075;-77
2024/02/22 15:55:28;;;;;;;2.58;1.23;;;11.80;81.10;;;;;;4020986;29;20470;-78
2024/02/22 15:57:30;;;;;;;1.10;0.40;;;11.80;81.50;;;;;;4020769;29;20053;-79
2024/02/22 15:59:33;;;;;;;0.82;0.30;;;11.80;80.40;;;;;;4029401;29;20105;-79
2024/02/22 16:01:35;;;;;;;2.25;0.50;;;11.80;80.70;;;;;;4036195;29;20056;-77
2024/02/22 16:03:36;;;;;;;1.27;0.40;;;11.80;80.60;;;;;;4036386;29;20535;-78
2024/02/22 16:05:38;;;;;;;1.08;0.30;;;11.80;81.30;;;;;;4036091;29;20049;-79
2024/02/22 16:07:41;;;;;;;0.73;0.30;;;11.70;82.80;;;;;;4036243;29;20049;-78
2024/02/22 16:09:43;;;;;;;1.08;0.50;;;11.70;82.70;;;;;;4035971;29;20099;-77
2024/02/22 16:11:45;;;;;;;1.45;0.52;;;11.70;81.40;;;;;;4035803;29;20666;-79
2024/02/22 16:13:47;;;;;;;1.27;0.40;;;11.70;81.40;;;;;;4036384;29;20049;-77
2024/02/22 16:15:49;;;;;;;1.08;0.30;;;11.70;81.90;;;;;;4036150;29;20053;-79
2024/02/22 16:17:51;;;;;;;0.55;0.30;;;11.70;81.20;;;;;;4034050;29;20052;-80
2024/02/22 16:19:52;;;;;;;0.38;0.20;;;11.70;81.20;;;;;;4035987;29;20053;-78
2024/02/22 16:21:55;;;;;;;1.10;0.30;;;11.70;80.30;;;;;;4036468;29;20057;-78
2024/02/22 16:23:58;;;;;;;1.10;0.40;;;11.70;80.40;;;;;;4035841;29;20085;-79
2024/02/22 16:26:00;;;;;;;0.90;0.20;;;11.70;80.20;;;;;;4035808;29;20136;-78
2024/02/22 16:28:02;;;;;;;1.77;0.57;;;11.70;79.70;;;;;;4035874;29;20049;-78
2024/02/22 16:30:05;;;;;;;0.65;0.28;;;11.70;79.30;;;;;;4035913;29;20052;-77
2024/02/22 16:32:07;;;;;;;1.25;0.40;;;11.70;79.10;;;;;;4035730;29;20457;-79
2024/02/22 16:34:10;;;;;;;1.27;0.50;;;11.70;79.40;;;;;;4036279;29;20053;-78
2024/02/22 16:36:12;;;;;;;1.00;0.30;;;11.80;79.10;;;;;;4035461;29;20053;-79
2024/02/22 16:38:14;;;;;;;1.02;0.35;;;11.80;79.10;;;;;;4035724;29;20053;-79
2024/02/22 16:40:18;;;;;;;1.70;0.55;;;11.80;79.20;;;;;;4020541;29;20481;-79